Amanda — WDF2362 — position and weather

sailwx.info

Track history (hours):
 
Tides and Currents Weather Stations Pressure Air Temp Water Temp Dewpoint Dewpoint Depression Visibility Wind Speed Wind Dir Waves Ship Positions

Amanda

Owner: Enterprise Marine Services, LLC, San Antonio, TX. More information available from US FCC via Universal Licensing System and Coast Guard Vessel Documentation Center.

Last reported at 2018-Jul-16 13:01 UTC. Time now 2018-Jul-22 03:07 UTC.
Position N 30°33' W 087°12'.

Length 21 m; draft 3 m.

Type: Towing. MMSI: 367003230.

Date/timePositionNaut miles runAvg speedWind from/ knotsBaromVisibWave heightAir tempDewpointWater temp
2018-Jul-16 13:01N 30°33' W 087°12'0 0.0
2018-Jul-16 12:53N 30°33' W 087°12'  
2018-Jul-14 08:52N 29°35' W 090°36'3 5.8
2018-Jul-14 08:19N 29°36' W 090°40'2 5.0
2018-Jul-14 08:00N 29°36' W 090°41'2 3.1
2018-Jul-14 07:30N 29°36' W 090°43'2 4.3
2018-Jul-14 07:01N 29°34' W 090°44'1 2.3
2018-Jul-14 06:30N 29°33' W 090°45'1 2.2
2018-Jul-14 06:01N 29°32' W 090°46'1 0.0
2018-Jul-12 21:18N 29°32' W 090°47'2 6.2
2018-Jul-12 21:00N 29°33' W 090°45'3 5.2
2018-Jul-12 20:31N 29°34' W 090°43'2 3.3
2018-Jul-12 20:01N 29°36' W 090°43'1 2.4
2018-Jul-12 19:30N 29°37' W 090°41'1 2.0
2018-Jul-12 19:01N 29°36' W 090°40'0 0.0
2018-Jul-12 18:30N 29°36' W 090°40'1 1.7
2018-Jul-12 18:01N 29°36' W 090°40'3 5.4
2018-Jul-12 17:30N 29°35' W 090°37'3 5.1
2018-Jul-12 16:59N 29°34' W 090°34'3 5.9
2018-Jul-12 16:30N 29°34' W 090°31'  
Track history (hours):
 
Tides and Currents Weather Stations Pressure Air Temp Water Temp Dewpoint Dewpoint Depression Visibility Wind Speed Wind Dir Waves Ship Positions

Amanda

Owner: Enterprise Marine Services, LLC, San Antonio, TX. More information available from US FCC via Universal Licensing System and Coast Guard Vessel Documentation Center.

Last reported at 2018-Jul-16 13:01 UTC. Time now 2018-Jul-22 03:07 UTC.
Position N 30°33' W 087°12'.

Length 21 m; draft 3 m.

Type: Towing. MMSI: 367003230.

Date/timePositionNaut miles runAvg speedWind from/ knotsBaromVisibWave heightAir tempDewpointWater temp
2018-Jul-16 13:01N 30°33' W 087°12'0 0.0
2018-Jul-16 12:53N 30°33' W 087°12'  
2018-Jul-14 08:52N 29°35' W 090°36'3 5.8
2018-Jul-14 08:19N 29°36' W 090°40'2 5.0
2018-Jul-14 08:00N 29°36' W 090°41'2 3.1
2018-Jul-14 07:30N 29°36' W 090°43'2 4.3
2018-Jul-14 07:01N 29°34' W 090°44'1 2.3
2018-Jul-14 06:30N 29°33' W 090°45'1 2.2
2018-Jul-14 06:01N 29°32' W 090°46'1 0.0
2018-Jul-12 21:18N 29°32' W 090°47'2 6.2
2018-Jul-12 21:00N 29°33' W 090°45'3 5.2
2018-Jul-12 20:31N 29°34' W 090°43'2 3.3
2018-Jul-12 20:01N 29°36' W 090°43'1 2.4
2018-Jul-12 19:30N 29°37' W 090°41'1 2.0
2018-Jul-12 19:01N 29°36' W 090°40'0 0.0
2018-Jul-12 18:30N 29°36' W 090°40'1 1.7
2018-Jul-12 18:01N 29°36' W 090°40'3 5.4
2018-Jul-12 17:30N 29°35' W 090°37'3 5.1
2018-Jul-12 16:59N 29°34' W 090°34'3 5.9
2018-Jul-12 16:30N 29°34' W 090°31'  

Dump ship's entire track history